EKBI/BLL METAR and TAF weather

Enter ICAO airport designator
Station Type Date Time Source
EKBI METAR 2021/02/28 04:20 UTC NOAA

EKBI 280420Z AUTO 26009KT 9000 NCD 01/01 Q1036


Station Type Date Time Source
EKBI Decoded METAR 2021/02/28 04:20 UTC NOAA

Billund Lufthavn, Denmark (EKBI) 55-44N 009-10E 79M
Feb 27, 2021 - 11:20 PM EST / 2021.02.28 0420 UTC
Wind: from the W (260 degrees) at 10 MPH (9 KT):0
Visibility: 5 mile(s):0
Temperature: 33 F (1 C)
Windchill: 24 F (-4 C):1
Dew Point: 33 F (1 C)
Relative Humidity: 100%
Pressure (altimeter): 30.59 in. Hg (1036 hPa)
ob: EKBI 280420Z AUTO 26009KT 9000 NCD 01/01 Q1036
cycle: 4

Station Type Date Time Source
EKBI TAF 2021/02/27 18:30 UTC NOAA

TAF EKBI 271726Z 2718/2818 30008KT 9999 FEW004
TEMPO 2718/2723 2000 BR BKN004
TEMPO 2723/2810 0300 FG BKN001

Example: see airport list